createdAt,value
2018-06-15T00:00:10.315Z,26.60
2018-06-15T00:02:38.512Z,29.17
2018-06-15T00:05:06.869Z,27.00
2018-06-15T00:07:35.041Z,27.17
2018-06-15T00:10:03.219Z,28.27
2018-06-15T00:12:32.205Z,26.70
2018-06-15T00:15:01.212Z,26.47
2018-06-15T00:17:29.155Z,27.30
2018-06-15T00:19:57.385Z,29.97
2018-06-15T00:22:25.617Z,27.50
2018-06-15T00:24:53.817Z,27.73
2018-06-15T00:27:22.015Z,28.30
2018-06-15T00:29:50.208Z,26.67
2018-06-15T00:32:18.506Z,28.80
2018-06-15T00:34:46.676Z,27.00
2018-06-15T00:37:14.840Z,30.20
2018-06-15T00:39:43.052Z,29.90
2018-06-15T00:42:11.275Z,29.63
2018-06-15T00:44:39.448Z,29.53
2018-06-15T00:47:07.844Z,29.30
2018-06-15T00:49:36.116Z,31.37
2018-06-15T00:52:04.339Z,29.90
2018-06-15T00:54:32.567Z,28.90
2018-06-15T00:57:12.075Z,27.90
2018-06-15T00:59:40.483Z,30.20
2018-06-15T01:02:08.709Z,31.83
2018-06-15T01:04:36.920Z,30.73
2018-06-15T01:07:05.254Z,35.47
2018-06-15T01:09:33.424Z,32.70
2018-06-15T01:12:01.649Z,33.97
2018-06-15T01:14:29.837Z,31.90
2018-06-15T01:16:58.024Z,32.37
2018-06-15T01:19:26.299Z,34.00
2018-06-15T01:21:54.478Z,33.00
2018-06-15T01:24:22.708Z,33.80
2018-06-15T01:26:50.953Z,36.57
2018-06-15T01:29:19.153Z,34.97
2018-06-15T01:31:47.347Z,34.17
2018-06-15T01:34:15.571Z,38.27
2018-06-15T01:36:43.747Z,38.83
2018-06-15T01:39:12.317Z,37.40
2018-06-15T01:41:40.547Z,36.60
2018-06-15T01:44:08.763Z,36.90
2018-06-15T01:46:36.956Z,37.23
2018-06-15T01:49:05.308Z,37.40
2018-06-15T01:51:33.500Z,37.70
2018-06-15T01:54:01.688Z,39.60
2018-06-15T01:56:29.891Z,36.27
2018-06-15T01:58:58.175Z,40.17
2018-06-15T02:01:26.449Z,37.47
2018-06-15T02:03:54.855Z,39.30
2018-06-15T02:06:23.084Z,39.80
2018-06-15T02:08:51.281Z,39.97
2018-06-15T02:11:19.211Z,38.90
2018-06-15T02:13:47.454Z,38.00
2018-06-15T02:16:15.668Z,38.80
2018-06-15T02:18:43.882Z,39.30
2018-06-15T02:21:12.096Z,40.77
2018-06-15T02:23:40.565Z,40.73
2018-06-15T02:26:08.764Z,37.77
2018-06-15T02:28:36.984Z,43.30
2018-06-15T02:31:05.189Z,41.80
2018-06-15T02:33:33.404Z,41.10
2018-06-15T02:36:01.635Z,40.37
2018-06-15T02:38:29.886Z,42.40
2018-06-15T02:40:58.123Z,41.83
2018-06-15T02:43:26.533Z,40.00
2018-06-15T02:45:56.846Z,41.63
2018-06-15T02:48:26.597Z,39.50
2018-06-15T02:50:54.824Z,40.47
2018-06-15T02:53:23.553Z,42.30
2018-06-15T02:55:52.129Z,40.53
2018-06-15T02:58:20.926Z,41.60
2018-06-15T03:00:48.872Z,41.63
2018-06-15T03:03:17.084Z,39.10
2018-06-15T03:05:46.184Z,42.60
2018-06-15T03:08:14.408Z,40.80
2018-06-15T03:10:42.785Z,42.77
2018-06-15T03:13:11.057Z,38.77
2018-06-15T03:15:39.455Z,42.33
2018-06-15T03:18:07.694Z,44.40
2018-06-15T03:20:35.944Z,43.17
2018-06-15T03:23:04.177Z,42.90
2018-06-15T03:25:32.384Z,39.83
2018-06-15T03:28:00.596Z,44.00
2018-06-15T03:30:28.816Z,43.60
2018-06-15T03:32:57.026Z,41.90
2018-06-15T03:35:25.277Z,41.27
2018-06-15T03:37:53.514Z,43.90
2018-06-15T03:40:21.900Z,41.47
2018-06-15T03:42:50.152Z,46.40
2018-06-15T03:45:18.394Z,41.57
2018-06-15T03:47:46.594Z,45.40
2018-06-15T03:50:14.804Z,41.77
2018-06-15T03:52:43.021Z,43.20
2018-06-15T03:55:10.985Z,44.10
2018-06-15T03:57:39.245Z,44.47
2018-06-15T04:00:07.498Z,42.50
2018-06-15T04:02:35.764Z,45.60
2018-06-15T04:05:03.989Z,45.07
2018-06-15T04:07:32.240Z,42.00
2018-06-15T04:10:00.640Z,42.30
2018-06-15T04:12:28.898Z,44.73
2018-06-15T04:14:57.172Z,45.13
2018-06-15T04:17:25.479Z,43.30
2018-06-15T04:19:53.803Z,45.13
2018-06-15T04:22:22.037Z,43.50
2018-06-15T04:24:50.299Z,41.30
2018-06-15T04:27:18.575Z,44.87
2018-06-15T04:29:46.834Z,45.23
2018-06-15T04:32:15.088Z,44.27
2018-06-15T04:34:43.333Z,43.07
2018-06-15T04:37:11.604Z,44.00
2018-06-15T04:39:39.951Z,44.17
2018-06-15T04:42:07.958Z,41.87
2018-06-15T04:44:36.225Z,43.23
2018-06-15T04:47:04.761Z,45.33
2018-06-15T04:49:33.031Z,44.33
2018-06-15T04:52:01.418Z,45.17
2018-06-15T04:54:30.058Z,46.57
2018-06-15T04:56:58.304Z,44.70
2018-06-15T04:59:26.580Z,44.63
2018-06-15T05:01:54.810Z,42.70
2018-06-15T05:04:23.098Z,46.47
2018-06-15T05:06:51.379Z,44.53
2018-06-15T05:09:19.883Z,45.03
2018-06-15T05:11:48.120Z,46.97
2018-06-15T05:14:16.388Z,47.47
2018-06-15T05:16:44.625Z,46.77
2018-06-15T05:19:12.881Z,42.33
2018-06-15T05:21:41.176Z,40.00
2018-06-15T05:24:09.452Z,45.63
2018-06-15T05:26:37.772Z,47.37
2018-06-15T05:29:06.040Z,45.33
2018-06-15T05:31:34.324Z,45.00
2018-06-15T05:34:02.637Z,43.73
2018-06-15T05:36:30.904Z,44.63
2018-06-15T05:38:59.346Z,45.80
2018-06-15T05:41:27.652Z,48.33
2018-06-15T05:43:55.924Z,46.07
2018-06-15T05:46:24.169Z,46.73
2018-06-15T05:48:52.883Z,45.77
2018-06-15T05:51:21.276Z,44.13
2018-06-15T05:53:49.541Z,41.80
2018-06-15T05:56:17.797Z,41.80
2018-06-15T05:58:47.371Z,42.77
2018-06-15T06:01:15.627Z,40.97
2018-06-15T06:03:43.904Z,39.97
2018-06-15T06:06:12.141Z,35.97
2018-06-15T06:08:40.571Z,38.97
2018-06-15T06:11:09.325Z,43.33
2018-06-15T06:13:37.640Z,42.50
2018-06-15T06:16:05.918Z,38.87
2018-06-15T06:18:34.211Z,37.83
2018-06-15T06:21:02.786Z,36.53
2018-06-15T06:23:31.132Z,38.57
2018-06-15T06:25:59.472Z,36.37
2018-06-15T06:28:27.730Z,36.47
2018-06-15T06:30:56.012Z,35.57
2018-06-15T06:33:24.309Z,38.20
2018-06-15T06:35:52.716Z,37.60
2018-06-15T06:38:21.004Z,36.37
2018-06-15T06:40:49.247Z,34.43
2018-06-15T06:43:17.511Z,32.43
2018-06-15T06:45:45.724Z,35.80
2018-06-15T06:48:13.947Z,36.90
2018-06-15T06:50:42.199Z,37.30
2018-06-15T06:53:10.448Z,34.17
2018-06-15T06:55:38.697Z,35.30
2018-06-15T06:58:06.922Z,35.80
2018-06-15T07:00:35.364Z,32.60
2018-06-15T07:03:03.582Z,33.73
2018-06-15T07:05:31.812Z,33.67
2018-06-15T07:08:00.105Z,32.90
2018-06-15T07:10:28.078Z,33.53
2018-06-15T07:12:56.360Z,31.30
2018-06-15T07:15:24.644Z,33.07
2018-06-15T07:17:52.872Z,30.60
2018-06-15T07:20:21.139Z,33.63
2018-06-15T07:22:49.371Z,31.97
2018-06-15T07:25:17.890Z,32.30
2018-06-15T07:27:46.167Z,32.97
2018-06-15T07:30:14.492Z,31.30
2018-06-15T07:32:42.736Z,32.30
2018-06-15T07:35:11.017Z,30.90
2018-06-15T07:37:39.353Z,30.53
2018-06-15T07:40:07.580Z,29.40
2018-06-15T07:42:35.847Z,29.53
2018-06-15T07:45:04.203Z,32.83
2018-06-15T07:47:32.436Z,28.47
2018-06-15T07:50:01.076Z,29.70
2018-06-15T07:52:29.394Z,28.67
2018-06-15T07:54:57.637Z,30.40
2018-06-15T07:57:25.860Z,31.67
2018-06-15T07:59:54.243Z,28.77
2018-06-15T08:02:22.539Z,29.10
2018-06-15T08:04:50.771Z,28.20
2018-06-15T08:07:19.040Z,26.80
2018-06-15T08:09:47.311Z,25.17
2018-06-15T08:12:15.663Z,27.10
2018-06-15T08:14:43.941Z,24.97
2018-06-15T08:17:12.239Z,25.90
2018-06-15T08:19:40.473Z,24.33
2018-06-15T08:22:08.732Z,25.33
2018-06-15T08:24:36.980Z,24.50
2018-06-15T08:27:05.247Z,24.40
2018-06-15T08:29:33.557Z,20.83
2018-06-15T08:32:01.867Z,21.87
2018-06-15T08:34:30.249Z,20.80
2018-06-15T08:36:58.689Z,21.73
2018-06-15T08:39:26.948Z,21.20
2018-06-15T08:41:55.191Z,19.00
2018-06-15T08:44:23.593Z,15.73
2018-06-15T08:46:51.848Z,18.80
2018-06-15T08:49:20.125Z,18.30
2018-06-15T08:51:48.445Z,17.97
2018-06-15T08:54:16.718Z,18.80
2018-06-15T08:56:44.946Z,16.40
2018-06-15T08:59:13.279Z,17.37
2018-06-15T09:01:41.594Z,13.83
2018-06-15T09:04:09.836Z,16.90
2018-06-15T09:06:38.092Z,18.30
2018-06-15T09:09:07.729Z,14.70
2018-06-15T09:11:35.791Z,14.70
2018-06-15T09:14:04.084Z,17.43
2018-06-15T09:16:32.124Z,16.73
2018-06-15T09:19:00.285Z,15.97
2018-06-15T09:21:28.600Z,15.67
2018-06-15T09:23:56.810Z,16.30
2018-06-15T09:26:25.036Z,16.00
2018-06-15T09:28:53.308Z,16.23
2018-06-15T09:31:21.552Z,17.43
2018-06-15T09:33:49.812Z,16.23
2018-06-15T09:36:18.114Z,14.80
2018-06-15T09:38:46.387Z,15.27
2018-06-15T09:41:14.665Z,15.50
2018-06-15T09:43:42.939Z,14.23
2018-06-15T09:46:11.257Z,13.97
2018-06-15T09:48:42.155Z,14.70
2018-06-15T09:51:10.679Z,15.07
2018-06-15T09:53:38.950Z,12.27
2018-06-15T09:56:07.212Z,14.20
2018-06-15T09:58:35.468Z,13.90
2018-06-15T10:01:08.076Z,14.70
2018-06-15T10:03:36.852Z,10.17
2018-06-15T10:06:05.132Z,9.57
2018-06-15T10:08:33.731Z,8.10
2018-06-15T10:11:02.137Z,9.00
2018-06-15T10:13:30.419Z,10.00
2018-06-15T10:15:58.686Z,11.20
2018-06-15T10:18:26.965Z,9.97
2018-06-15T10:20:55.213Z,12.30
2018-06-15T10:23:23.473Z,13.50
2018-06-15T10:25:51.752Z,15.00
2018-06-15T10:28:20.000Z,13.33
2018-06-15T10:30:48.278Z,11.67
2018-06-15T10:33:16.511Z,9.67
2018-06-15T10:35:44.756Z,8.87
2018-06-15T10:38:13.001Z,11.70
2018-06-15T10:40:41.447Z,11.67
2018-06-15T10:43:09.697Z,12.13
2018-06-15T10:45:37.941Z,10.40
2018-06-15T10:48:06.192Z,13.43
2018-06-15T10:50:34.436Z,11.00
2018-06-15T10:53:02.696Z,9.40
2018-06-15T10:55:30.939Z,7.93
2018-06-15T10:57:59.184Z,8.90
2018-06-15T11:00:27.444Z,9.50
2018-06-15T11:02:55.667Z,8.77
2018-06-15T11:05:23.904Z,9.83
2018-06-15T11:07:52.156Z,10.20
2018-06-15T11:10:20.583Z,9.50
2018-06-15T11:12:48.815Z,7.57
2018-06-15T11:15:17.097Z,6.33
2018-06-15T11:17:45.453Z,5.43
2018-06-15T11:20:13.725Z,6.03
2018-06-15T11:22:42.134Z,6.27
2018-06-15T11:25:10.375Z,6.80
2018-06-15T11:27:38.612Z,8.50
2018-06-15T11:30:06.891Z,7.80
2018-06-15T11:32:35.233Z,7.27
2018-06-15T11:35:03.452Z,8.57
2018-06-15T11:37:31.729Z,6.53
2018-06-15T11:40:00.108Z,6.90
2018-06-15T11:42:28.433Z,8.53
2018-06-15T11:44:56.673Z,8.63
2018-06-15T11:47:24.944Z,5.13
2018-06-15T11:49:53.238Z,5.07
2018-06-15T11:52:21.492Z,6.07
2018-06-15T11:54:49.764Z,6.00
2018-06-15T11:57:18.056Z,5.13
2018-06-15T11:59:46.307Z,5.30
2018-06-15T12:02:14.541Z,4.67
2018-06-15T12:04:42.807Z,5.50
2018-06-15T12:07:11.080Z,5.33
2018-06-15T12:09:39.470Z,4.43
2018-06-15T12:12:07.807Z,4.77
2018-06-15T12:14:36.057Z,4.40
2018-06-15T12:17:04.368Z,4.43
2018-06-15T12:19:32.718Z,4.23
2018-06-15T12:22:00.984Z,4.47
2018-06-15T12:24:29.247Z,4.70
2018-06-15T12:26:57.512Z,4.50
2018-06-15T12:29:25.792Z,4.43
2018-06-15T12:31:54.008Z,5.27
2018-06-15T12:34:22.260Z,5.97
2018-06-15T12:36:50.957Z,5.27
2018-06-15T12:39:19.358Z,5.90
2018-06-15T12:41:47.634Z,5.03
2018-06-15T12:44:15.974Z,4.80
2018-06-15T12:46:44.224Z,5.60
2018-06-15T12:49:12.508Z,6.43
2018-06-15T12:51:40.783Z,6.47
2018-06-15T12:54:09.059Z,5.83
2018-06-15T12:56:37.363Z,6.37
2018-06-15T12:59:05.691Z,6.40
2018-06-15T13:01:33.910Z,7.57
2018-06-15T13:04:02.214Z,6.90
2018-06-15T13:06:30.477Z,5.27
2018-06-15T13:08:58.920Z,5.93
2018-06-15T13:11:27.174Z,6.13
2018-06-15T13:13:55.469Z,7.33
2018-06-15T13:16:23.748Z,5.87
2018-06-15T13:18:51.975Z,6.20
2018-06-15T13:21:20.252Z,6.80
2018-06-15T13:23:48.576Z,7.73
2018-06-15T13:26:16.723Z,7.13
2018-06-15T13:28:44.980Z,6.70
2018-06-15T13:31:13.232Z,8.70
2018-06-15T13:33:41.493Z,10.00
2018-06-15T13:36:09.788Z,7.60
2018-06-15T13:38:38.048Z,9.00
2018-06-15T13:41:06.308Z,9.60
2018-06-15T13:43:34.561Z,9.60
2018-06-15T13:46:02.788Z,9.10
2018-06-15T13:48:31.017Z,8.93
2018-06-15T13:50:59.272Z,10.20
2018-06-15T13:53:27.518Z,10.70
2018-06-15T13:55:55.740Z,9.87
2018-06-15T13:58:24.060Z,6.50
2018-06-15T14:00:52.180Z,7.60
2018-06-15T14:03:20.441Z,7.70
2018-06-15T14:05:48.699Z,8.33
2018-06-15T14:08:16.945Z,8.77
2018-06-15T14:10:45.221Z,8.77
2018-06-15T14:13:13.462Z,6.87
2018-06-15T14:15:41.699Z,4.87
2018-06-15T14:18:09.973Z,5.37
2018-06-15T14:20:38.308Z,5.93
2018-06-15T14:23:06.527Z,5.40
2018-06-15T14:25:34.777Z,4.77
2018-06-15T14:28:03.034Z,5.20
2018-06-15T14:30:31.382Z,4.10
2018-06-15T14:32:59.640Z,4.07
2018-06-15T14:35:28.065Z,4.43
2018-06-15T14:37:56.347Z,5.60
2018-06-15T14:40:24.636Z,5.07
2018-06-15T14:42:52.859Z,4.40
2018-06-15T14:45:21.144Z,3.13
2018-06-15T14:47:49.384Z,3.00
2018-06-15T14:50:17.723Z,3.40
2018-06-15T14:52:45.959Z,3.30
2018-06-15T14:55:14.226Z,3.80
2018-06-15T14:57:42.476Z,4.20
2018-06-15T15:00:10.535Z,3.50
2018-06-15T15:02:38.994Z,3.20
2018-06-15T15:05:07.712Z,4.10
2018-06-15T15:07:36.108Z,3.30
2018-06-15T15:10:05.444Z,2.60
2018-06-15T15:12:34.379Z,3.23
2018-06-15T15:15:03.056Z,2.73
2018-06-15T15:17:31.588Z,3.30
2018-06-15T15:19:59.928Z,3.80
2018-06-15T15:22:28.192Z,2.90
2018-06-15T15:24:56.664Z,3.30
2018-06-15T15:27:25.391Z,3.00
2018-06-15T15:29:54.099Z,2.70
2018-06-15T15:32:22.600Z,2.70
2018-06-15T15:34:50.942Z,3.13
2018-06-15T15:37:19.577Z,2.90
2018-06-15T15:39:48.575Z,2.73
2018-06-15T15:42:16.931Z,2.97
2018-06-15T15:44:45.583Z,2.20
2018-06-15T15:47:14.610Z,2.10
2018-06-15T15:49:43.296Z,2.00
2018-06-15T15:52:11.875Z,2.40
2018-06-15T15:54:40.620Z,2.40
2018-06-15T15:57:09.044Z,2.50
2018-06-15T15:59:37.562Z,2.27
2018-06-15T16:02:06.323Z,2.73
2018-06-15T16:04:34.989Z,2.60
2018-06-15T16:07:03.539Z,2.50
2018-06-15T16:09:32.351Z,2.43
2018-06-15T16:12:00.591Z,2.83
2018-06-15T16:14:29.219Z,2.80
2018-06-15T16:16:57.896Z,2.87
2018-06-15T16:19:26.648Z,2.30
2018-06-15T16:21:54.955Z,2.77
2018-06-15T16:24:24.008Z,2.40
2018-06-15T16:26:52.602Z,3.10
2018-06-15T16:29:22.090Z,2.37
2018-06-15T16:31:50.921Z,2.37
2018-06-15T16:34:19.436Z,2.10
2018-06-15T16:36:47.766Z,2.20
2018-06-15T16:39:16.731Z,2.77
2018-06-15T16:41:45.559Z,2.53
2018-06-15T16:44:13.821Z,2.10
2018-06-15T16:46:42.083Z,2.53
2018-06-15T16:49:10.312Z,2.20
2018-06-15T16:51:38.287Z,1.50
2018-06-15T16:54:06.652Z,3.33
2018-06-15T16:56:34.938Z,2.60
2018-06-15T16:59:03.039Z,2.37
2018-06-15T17:01:32.037Z,2.40
2018-06-15T17:04:00.456Z,2.80
2018-06-15T17:06:28.836Z,2.27
2018-06-15T17:08:57.151Z,2.77
2018-06-15T17:11:26.081Z,2.50
2018-06-15T17:13:55.059Z,2.77
2018-06-15T17:16:24.851Z,2.90
2018-06-15T17:18:53.493Z,2.80
2018-06-15T17:21:22.267Z,2.50
2018-06-15T17:23:50.899Z,2.10
2018-06-15T17:26:19.571Z,2.07
2018-06-15T17:28:49.078Z,2.57
2018-06-15T17:31:18.321Z,2.73
2018-06-15T17:33:46.559Z,3.27
2018-06-15T17:36:15.686Z,3.30
2018-06-15T17:38:43.998Z,2.87
2018-06-15T17:41:13.078Z,3.77
2018-06-15T17:43:41.865Z,3.67
2018-06-15T17:46:10.407Z,3.73
2018-06-15T17:48:38.764Z,5.00
2018-06-15T17:51:07.553Z,5.03
2018-06-15T17:53:36.378Z,4.40
2018-06-15T17:56:04.600Z,5.60
2018-06-15T17:58:32.872Z,4.40
2018-06-15T18:01:01.144Z,4.70
2018-06-15T18:03:29.402Z,4.93
2018-06-15T18:05:57.672Z,4.70
2018-06-15T18:08:25.973Z,5.13
2018-06-15T18:10:54.241Z,5.40
2018-06-15T18:13:22.489Z,5.00
2018-06-15T18:15:50.747Z,5.47
2018-06-15T18:18:19.001Z,6.23
2018-06-15T18:20:47.416Z,5.10
2018-06-15T18:23:15.753Z,6.87
2018-06-15T18:25:43.989Z,6.60
2018-06-15T18:28:12.233Z,6.47
2018-06-15T18:30:40.508Z,7.53
2018-06-15T18:33:08.780Z,7.43
2018-06-15T18:35:37.008Z,8.90
2018-06-15T18:38:05.452Z,7.20
2018-06-15T18:40:33.835Z,8.33
2018-06-15T18:43:02.090Z,9.17
2018-06-15T18:45:30.390Z,8.47
2018-06-15T18:47:58.703Z,8.80
2018-06-15T18:50:26.991Z,8.50
2018-06-15T18:52:55.232Z,8.60
2018-06-15T18:55:24.395Z,8.80
2018-06-15T18:57:52.691Z,9.10
2018-06-15T19:00:21.508Z,9.43
2018-06-15T19:02:50.575Z,8.37
2018-06-15T19:05:25.379Z,8.73
2018-06-15T19:07:53.802Z,8.00
2018-06-15T19:10:22.070Z,8.60
2018-06-15T19:12:50.339Z,7.80
2018-06-15T19:15:18.630Z,7.93
2018-06-15T19:17:46.914Z,6.87
2018-06-15T19:20:15.248Z,6.90
2018-06-15T19:22:43.672Z,6.77
2018-06-15T19:25:11.916Z,8.77
2018-06-15T19:27:40.423Z,8.47
2018-06-15T19:30:09.360Z,7.23
2018-06-15T19:32:37.600Z,7.37
2018-06-15T19:35:05.846Z,6.80
2018-06-15T19:40:08.443Z,7.43
2018-06-15T19:42:36.667Z,6.90
2018-06-15T19:45:05.082Z,6.33
2018-06-15T19:47:33.236Z,7.97
2018-06-15T19:50:01.610Z,8.00
2018-06-15T19:52:30.023Z,7.50
2018-06-15T19:54:58.535Z,7.40
2018-06-15T19:57:26.787Z,6.17
2018-06-15T19:59:55.060Z,6.63
2018-06-15T20:02:23.321Z,6.23
2018-06-15T20:04:51.615Z,7.33
2018-06-15T20:07:19.848Z,9.30
2018-06-15T20:09:48.137Z,8.07
2018-06-15T20:12:16.391Z,7.40
2018-06-15T20:14:45.504Z,6.60
2018-06-15T20:17:13.799Z,8.00
2018-06-15T20:19:42.056Z,7.27
2018-06-15T20:22:10.319Z,7.23
2018-06-15T20:24:38.546Z,9.23
2018-06-15T20:27:07.140Z,7.20
2018-06-15T20:29:35.431Z,7.50
2018-06-15T20:32:03.672Z,9.10
2018-06-15T20:34:31.929Z,8.90
2018-06-15T20:37:00.540Z,8.57
2018-06-15T20:39:28.791Z,8.70
2018-06-15T20:41:57.049Z,8.00
2018-06-15T20:44:25.029Z,7.97
2018-06-15T20:46:53.282Z,7.80
2018-06-15T20:49:22.287Z,9.00
2018-06-15T20:51:50.616Z,8.37
2018-06-15T20:54:19.289Z,8.53
2018-06-15T20:56:47.557Z,9.63
2018-06-15T20:59:15.804Z,8.90
2018-06-15T21:01:43.838Z,9.83
2018-06-15T21:04:12.080Z,8.70
2018-06-15T21:06:40.339Z,9.30
2018-06-15T21:09:09.539Z,8.73
2018-06-15T21:11:37.887Z,8.90
2018-06-15T21:14:06.196Z,9.83
2018-06-15T21:16:34.504Z,11.10
2018-06-15T21:19:02.752Z,10.60
2018-06-15T21:21:31.013Z,11.07
2018-06-15T21:23:59.271Z,10.73
2018-06-15T21:26:27.559Z,12.47
2018-06-15T21:28:56.135Z,12.83
2018-06-15T21:31:24.601Z,12.77
2018-06-15T21:33:52.884Z,11.63
2018-06-15T21:36:21.155Z,12.43
2018-06-15T21:38:49.424Z,13.27
2018-06-15T21:41:17.723Z,11.80
2018-06-15T21:43:45.972Z,12.60
2018-06-15T21:46:14.224Z,13.40
2018-06-15T21:48:42.459Z,12.40
2018-06-15T21:51:10.754Z,13.20
2018-06-15T21:53:39.043Z,11.70
2018-06-15T21:56:07.309Z,11.33
2018-06-15T21:58:35.568Z,13.60
2018-06-15T22:01:03.808Z,12.10
2018-06-15T22:03:32.085Z,12.43
2018-06-15T22:06:00.389Z,12.90
2018-06-15T22:08:28.692Z,13.20
2018-06-15T22:10:56.955Z,12.07
2018-06-15T22:13:25.212Z,14.10
2018-06-15T22:15:53.695Z,15.03
2018-06-15T22:18:21.994Z,14.13
2018-06-15T22:20:50.235Z,14.43
2018-06-15T22:23:18.488Z,14.17
2018-06-15T22:25:46.828Z,15.50
2018-06-15T22:28:15.096Z,15.50
2018-06-15T22:30:43.335Z,14.80
2018-06-15T22:33:11.620Z,16.40
2018-06-15T22:35:39.823Z,14.97
2018-06-15T22:38:08.104Z,15.70
2018-06-15T22:40:36.532Z,14.07
2018-06-15T22:43:04.828Z,15.17
2018-06-15T22:45:33.092Z,15.20
2018-06-15T22:48:01.341Z,15.27
2018-06-15T22:50:29.588Z,15.40
2018-06-15T22:52:57.840Z,16.30
2018-06-15T22:55:25.851Z,13.80
2018-06-15T22:57:54.104Z,15.23
2018-06-15T23:00:24.144Z,14.27
2018-06-15T23:02:52.404Z,14.30
2018-06-15T23:05:20.652Z,13.83
2018-06-15T23:07:48.955Z,13.60
2018-06-15T23:10:17.284Z,13.70
2018-06-15T23:12:45.542Z,13.43
2018-06-15T23:15:13.813Z,12.93
2018-06-15T23:17:42.067Z,14.03
2018-06-15T23:20:10.328Z,12.40
2018-06-15T23:22:39.166Z,12.40
2018-06-15T23:25:07.461Z,13.07
2018-06-15T23:27:35.792Z,10.60
2018-06-15T23:30:04.465Z,12.10
2018-06-15T23:32:32.737Z,13.57
2018-06-15T23:35:00.993Z,12.93
2018-06-15T23:37:29.264Z,13.47
2018-06-15T23:39:57.628Z,13.47
2018-06-15T23:42:25.921Z,13.90
2018-06-15T23:44:54.160Z,13.20
2018-06-15T23:47:22.409Z,14.53
2018-06-15T23:49:50.637Z,11.80
2018-06-15T23:52:18.902Z,13.33
2018-06-15T23:54:47.390Z,15.20
2018-06-15T23:57:15.647Z,16.13
2018-06-15T23:59:43.929Z,16.67
